Accueil
METAR-TAF:

METAR-TAF

Aéroports :

Aéroport Mariscal Lamar de Cuenca

Cuenca, Équateur

latitude: 02-53-22S, longitude: 078-59-04W, altitude: 2532 m

Observation

Le bulletin a été fait il y a 37 minutes, à 11:00 UTC
Vent 3 kt de sud/sud-ouest
Température 10°C
Humidité 82%
Pression 1028 hPa
Visibilité 10 km ou plus
Nuages fragmentés à une hauteur de 3000 ft

METAR: SECU 151100Z 20003KT 9999 BKN030 10/07 Q1028

Heure: 06:37 (11:37 UTC)


TAF: absent

Observations et prévisions météorologiques de plus de 4000 aéroports (messages METAR et TAF).

Les stations disponibles sont représentées par des disques jaunes et rouges sur la carte.

Passer la souris dessus pour voir le nom de la station.

Cliquer dessus pour voir les observations et prévisions météorologiques.

Pour changer de carte: cliquez sur les boutons verts avec une croix noire pour zoomer, sur le bouton vert avec un tiret pour effectuer un zoom arrière, ou sur les flèches vertes pour les cartes adjacentes.


METAR-TAF: